Time;durP1;ratioP1;P1;durP2;ratioP2;P2;SDS_P1;SDS_P2;PMS_P1;PMS_P2;Temp;Humidity;BMP_temperature;BMP_pressure;BME280_temperature;BME280_humidity;BME280_pressure;Samples;Min_cycle;Max_cycle;Signal;HPM_P1;HPM_P2
2022/09/03 00:02:23;;;;;;;4.70;3.20;;;;;;;23.64;54.20;94899.47;4987849;28;20175;-64
2022/09/03 00:05:04;;;;;;;5.25;3.10;;;;;;;23.14;54.79;94833.88;4969746;28;20049;-61
2022/09/03 00:07:43;;;;;;;4.75;3.30;;;;;;;22.88;54.75;94813.09;4976078;28;20051;-62
2022/09/03 00:10:21;;;;;;;5.03;3.20;;;;;;;23.69;54.24;94917.75;4986498;28;20037;-62
2022/09/03 00:12:46;;;;;;;5.25;3.70;;;;;;;23.59;54.18;94897.53;4982024;28;20025;-61
2022/09/03 00:15:16;;;;;;;5.68;3.53;;;;;;;23.57;54.53;94910.94;4961322;28;20513;-61
2022/09/03 00:17:46;;;;;;;5.10;3.60;;;;;;;23.59;54.76;94927.53;4994712;28;20037;-61
2022/09/03 00:20:12;;;;;;;4.93;3.40;;;;;;;23.15;54.34;94848.22;4996023;28;20518;-63
2022/09/03 00:22:44;;;;;;;5.85;3.67;;;;;;;23.41;54.74;94876.44;5004707;28;20046;-62
2022/09/03 00:25:13;;;;;;;6.13;3.53;;;;;;;23.64;54.38;94907.66;4981611;28;20022;-61
2022/09/03 00:27:39;;;;;;;5.70;3.95;;;;;;;23.21;54.62;94857.81;4988473;28;20208;-61
2022/09/03 00:30:12;;;;;;;4.93;3.67;;;;;;;23.41;54.57;94887.34;5006481;28;20050;-61
2022/09/03 00:32:55;;;;;;;5.43;3.70;;;;;;;23.44;54.60;94886.31;4983716;28;20044;-61
2022/09/03 00:35:34;;;;;;;4.07;3.28;;;;;;;23.28;54.54;94873.59;4999803;28;20098;-64
2022/09/03 00:38:00;;;;;;;5.07;3.72;;;;;;;23.22;54.86;94851.13;4987792;28;20120;-64
2022/09/03 00:40:38;;;;;;;5.88;3.78;;;;;;;23.65;54.46;94917.34;5012394;28;20204;-62
2022/09/03 00:43:11;;;;;;;4.60;3.45;;;;;;;23.75;54.08;94910.25;4984863;28;20066;-61
2022/09/03 00:45:39;;;;;;;4.75;3.50;;;;;;;23.65;54.38;94911.88;4989714;28;20105;-62
2022/09/03 00:48:21;;;;;;;5.30;3.88;;;;;;;23.57;54.36;94921.81;4998181;28;20457;-62
2022/09/03 00:50:59;;;;;;;6.10;4.00;;;;;;;23.60;54.14;94918.84;4969267;28;20045;-63
2022/09/03 00:53:34;;;;;;;5.53;3.65;;;;;;;23.57;54.54;94921.81;4974017;28;20040;-63
2022/09/03 00:56:25;;;;;;;5.57;4.00;;;;;;;23.59;54.77;94920.06;4984222;28;20050;-62
2022/09/03 00:59:28;;;;;;;6.72;4.05;;;;;;;23.52;54.66;94925.38;4984725;28;20057;-63
2022/09/03 01:02:18;;;;;;;4.95;3.60;;;;;;;23.66;54.72;94924.25;5001801;28;20034;-62
2022/09/03 01:04:58;;;;;;;5.95;3.83;;;;;;;23.62;54.52;94919.06;4999039;28;20046;-61
2022/09/03 01:07:39;;;;;;;5.35;4.15;;;;;;;22.96;54.47;94825.66;4992693;28;20029;-62
2022/09/03 01:10:08;;;;;;;5.72;3.80;;;;;;;23.52;54.26;94914.47;4978056;28;20026;-63
2022/09/03 01:12:36;;;;;;;5.35;4.00;;;;;;;23.60;54.23;94920.81;5002368;28;20066;-62
2022/09/03 01:15:13;;;;;;;6.55;3.90;;;;;;;23.51;54.10;94918.44;5002542;28;20064;-64
2022/09/03 01:18:03;;;;;;;5.25;3.80;;;;;;;22.92;54.23;94842.25;4984537;28;20590;-60
2022/09/03 01:20:51;;;;;;;4.47;3.70;;;;;;;23.47;53.92;94901.63;5003963;28;20045;-63
2022/09/03 01:23:26;;;;;;;4.70;3.88;;;;;;;23.61;53.70;94927.75;4969590;28;20042;-61
2022/09/03 01:26:10;;;;;;;6.00;4.07;;;;;;;23.08;53.86;94849.53;5002289;28;20048;-63
2022/09/03 01:29:06;;;;;;;5.07;3.60;;;;;;;23.58;53.60;94928.78;5000770;28;20038;-63
2022/09/03 01:32:01;;;;;;;5.68;3.90;;;;;;;23.62;53.53;94935.41;4987497;28;20061;-62
2022/09/03 01:34:48;;;;;;;5.53;4.05;;;;;;;23.55;53.67;94957.06;4974308;28;20042;-61
2022/09/03 01:37:28;;;;;;;6.50;3.95;;;;;;;23.64;53.60;94945.84;5022784;28;20462;-62
2022/09/03 01:40:02;;;;;;;4.28;3.35;;;;;;;23.62;53.50;94953.75;5005693;28;20041;-62
2022/09/03 01:42:47;;;;;;;4.70;3.70;;;;;;;23.60;53.94;94953.53;4983164;28;20037;-61
2022/09/03 01:45:39;;;;;;;6.75;3.90;;;;;;;23.03;54.21;94874.09;5007468;28;20041;-61
2022/09/03 01:48:19;;;;;;;5.15;3.80;;;;;;;23.64;53.34;94943.09;5002935;28;20529;-61
2022/09/03 01:50:44;;;;;;;;;;;;;;;23.55;53.97;94935.25;4984655;28;20081;-60
2022/09/03 01:53:34;;;;;;;4.72;3.72;;;;;;;23.65;53.29;94931.69;4965343;28;20540;-60
2022/09/03 01:56:37;;;;;;;5.25;3.47;;;;;;;23.67;53.55;94936.63;4967902;28;20078;-60
2022/09/03 01:59:20;;;;;;;4.93;3.80;;;;;;;23.51;53.68;94940.22;4967075;28;20164;-60
2022/09/03 02:01:52;;;;;;;5.28;4.07;;;;;;;23.60;53.03;94920.81;4965908;28;20054;-60
2022/09/03 02:04:22;;;;;;;6.68;4.18;;;;;;;23.61;53.71;94927.75;4934820;28;20073;-60
2022/09/03 02:06:49;;;;;;;4.68;3.75;;;;;;;23.54;53.91;94928.31;4974477;28;20048;-61
2022/09/03 02:09:15;;;;;;;5.78;3.72;;;;;;;23.35;53.72;94922.09;4967661;28;20046;-61
2022/09/03 02:11:41;;;;;;;5.13;3.85;;;;;;;23.31;53.67;94916.16;4991430;28;20088;-61
2022/09/03 02:14:07;;;;;;;5.47;4.00;;;;;;;23.41;53.90;94914.59;4959380;28;20073;-61
2022/09/03 02:16:32;;;;;;;4.72;3.60;;;;;;;23.57;53.46;94940.91;5002475;28;20901;-61
2022/09/03 02:19:02;;;;;;;4.70;3.63;;;;;;;23.02;53.80;94864.47;4985404;28;20034;-62
2022/09/03 02:21:31;;;;;;;;;;;;;;;23.41;54.19;94942.56;4973810;28;20049;-62
2022/09/03 02:23:56;;;;;;;6.20;4.20;;;;;;;22.96;53.34;94864.53;4995833;28;19937;-62
2022/09/03 02:26:22;;;;;;;5.70;4.00;;;;;;;22.72;53.82;94833.03;5015182;28;20046;-62
2022/09/03 02:28:48;;;;;;;5.13;3.85;;;;;;;23.06;53.75;94890.19;5003519;28;20665;-62
2022/09/03 02:31:14;;;;;;;5.57;4.22;;;;;;;22.93;53.60;94860.09;4997383;28;20085;-61
2022/09/03 02:33:41;;;;;;;5.10;3.97;;;;;;;23.14;53.61;94904.69;5010657;28;20026;-61
2022/09/03 02:36:09;;;;;;;5.78;3.88;;;;;;;23.52;53.38;94958.06;4994007;28;20069;-61
2022/09/03 02:38:35;;;;;;;5.30;4.10;;;;;;;23.40;53.70;94940.34;5007661;28;20057;-61
2022/09/03 02:41:00;;;;;;;5.97;4.50;;;;;;;23.55;53.13;94951.59;5009387;28;20049;-62
2022/09/03 02:43:26;;;;;;;5.07;4.10;;;;;;;23.03;53.48;94891.19;5009266;28;20466;-61
2022/09/03 02:45:54;;;;;;;5.45;4.10;;;;;;;23.10;53.42;94906.97;5003574;28;20501;-61
2022/09/03 02:48:22;;;;;;;5.03;3.97;;;;;;;23.56;52.87;94969.44;5011785;28;20156;-61
2022/09/03 02:50:47;;;;;;;5.88;4.35;;;;;;;23.41;53.00;94952.75;5002843;28;20061;-60
2022/09/03 02:53:13;;;;;;;5.60;3.97;;;;;;;23.33;53.15;94962.72;5018651;28;20856;-62
2022/09/03 02:55:39;;;;;;;5.07;4.35;;;;;;;22.92;53.51;94891.25;4995791;28;20060;-61
2022/09/03 02:58:07;;;;;;;5.20;4.10;;;;;;;21.10;53.02;94641.47;5014982;28;20109;-61
2022/09/03 03:00:34;;;;;;;5.30;4.25;;;;;;;23.22;53.37;94946.47;5005557;28;20061;-61
2022/09/03 03:03:01;;;;;;;6.18;4.20;;;;;;;23.41;53.37;94963.66;5003984;28;20046;-61
2022/09/03 03:05:40;;;;;;;5.57;4.30;;;;;;;22.75;53.12;94886.47;4985999;28;20533;-60
2022/09/03 03:08:07;;;;;;;6.13;4.50;;;;;;;23.37;53.52;94963.19;4985625;28;20135;-59
2022/09/03 03:10:34;;;;;;;7.28;4.68;;;;;;;23.28;53.50;94938.97;4992834;28;20129;-60
2022/09/03 03:12:59;;;;;;;6.45;4.18;;;;;;;22.92;53.24;94874.91;5003262;28;20054;-61
2022/09/03 03:15:26;;;;;;;5.20;4.13;;;;;;;22.85;53.00;94868.56;5002018;28;20040;-61
2022/09/03 03:17:55;;;;;;;7.47;4.43;;;;;;;22.62;53.24;94823.75;5003895;28;20042;-61
2022/09/03 03:20:20;;;;;;;7.38;4.53;;;;;;;22.99;53.21;94896.19;4987339;28;20033;-60
2022/09/03 03:22:46;;;;;;;5.78;4.15;;;;;;;23.36;53.18;94941.88;5014511;28;20452;-61
2022/09/03 03:25:11;;;;;;;5.90;4.45;;;;;;;23.43;53.02;94942.06;4968422;28;20066;-60
2022/09/03 03:27:41;;;;;;;5.28;4.00;;;;;;;22.91;53.31;94870.72;4993464;28;20029;-60
2022/09/03 03:30:08;;;;;;;5.75;4.25;;;;;;;23.39;53.01;94971.56;4997324;28;20037;-61
2022/09/03 03:32:35;;;;;;;5.78;4.50;;;;;;;23.37;53.27;94952.28;5008442;28;20042;-61
2022/09/03 03:35:00;;;;;;;6.43;4.35;;;;;;;23.12;53.28;94920.81;4995133;28;20089;-61
2022/09/03 03:37:26;;;;;;;5.45;4.47;;;;;;;23.25;53.05;94948.19;4984251;28;20058;-60
2022/09/03 03:39:51;;;;;;;5.70;4.63;;;;;;;22.64;53.51;94864.78;4970515;28;20014;-60
2022/09/03 03:42:17;;;;;;;6.63;4.40;;;;;;;23.32;53.28;94944.91;4982487;28;20038;-60
2022/09/03 03:44:42;;;;;;;5.82;4.20;;;;;;;23.16;53.58;94948.50;4983797;28;20073;-60
2022/09/03 03:47:08;;;;;;;6.35;4.85;;;;;;;23.22;53.59;94968.28;4972118;28;20508;-60
2022/09/03 03:49:33;;;;;;;6.40;4.00;;;;;;;22.95;53.79;94920.22;4982863;28;20112;-60
2022/09/03 03:51:59;;;;;;;6.22;4.50;;;;;;;23.24;53.82;94943.97;4978969;28;20026;-60
2022/09/03 03:54:25;;;;;;;6.10;4.47;;;;;;;22.79;54.17;94905.97;4970924;28;20034;-61
2022/09/03 03:56:50;;;;;;;6.38;4.32;;;;;;;22.77;53.15;94878.53;4973960;28;20081;-60
2022/09/03 03:59:16;;;;;;;5.35;4.30;;;;;;;22.73;53.66;94886.25;4978562;28;20039;-61
2022/09/03 04:01:41;;;;;;;6.07;4.82;;;;;;;23.10;53.66;94950.53;4982668;28;20206;-60
2022/09/03 04:04:07;;;;;;;5.68;4.43;;;;;;;22.75;54.20;94913.69;4988722;28;20030;-60
2022/09/03 04:06:32;;;;;;;5.20;4.40;;;;;;;23.23;53.41;94967.03;4984641;28;20118;-61
2022/09/03 04:08:58;;;;;;;6.38;4.32;;;;;;;22.87;53.46;94925.97;4985293;28;20908;-61
2022/09/03 04:11:24;;;;;;;5.53;4.22;;;;;;;22.61;53.79;94876.69;4973647;28;20053;-60
2022/09/03 04:13:49;;;;;;;5.72;4.20;;;;;;;23.27;53.53;94948.41;4971974;28;20046;-60
2022/09/03 04:16:17;;;;;;;5.88;4.53;;;;;;;22.67;53.39;94886.28;4978976;28;20038;-60
2022/09/03 04:18:42;;;;;;;4.75;4.03;;;;;;;23.05;53.81;94932.28;4975031;28;20069;-59
2022/09/03 04:21:10;;;;;;;5.60;4.63;;;;;;;22.64;53.47;94881.13;4981115;28;20038;-61
2022/09/03 04:23:37;;;;;;;6.20;4.65;;;;;;;22.94;53.17;94916.03;4979305;28;20129;-62
2022/09/03 04:26:03;;;;;;;5.10;4.03;;;;;;;23.06;53.46;94939.22;4981981;28;20060;-62
2022/09/03 04:28:29;;;;;;;5.90;4.47;;;;;;;22.51;53.47;94861.91;4982113;28;20050;-58
2022/09/03 04:30:59;;;;;;;6.10;4.45;;;;;;;23.13;53.64;94965.88;4983836;28;20034;-60
2022/09/03 04:33:25;;;;;;;6.60;4.60;;;;;;;22.52;53.89;94875.00;4990097;28;20042;-60
2022/09/03 04:35:50;;;;;;;5.32;4.40;;;;;;;22.86;54.14;94935.38;4995822;28;20038;-61
2022/09/03 04:38:16;;;;;;;5.40;4.22;;;;;;;22.67;53.73;94901.88;4999204;28;20070;-62
2022/09/03 04:40:42;;;;;;;5.25;4.30;;;;;;;22.67;53.30;94907.31;4982991;28;20043;-59
2022/09/03 04:43:08;;;;;;;6.30;4.38;;;;;;;23.19;53.96;94996.53;5001822;28;20077;-60
2022/09/03 04:45:33;;;;;;;5.38;4.32;;;;;;;23.12;54.13;94986.19;5002165;28;20454;-59
2022/09/03 04:48:02;;;;;;;7.05;4.25;;;;;;;23.10;53.83;94994.13;5008208;28;20128;-61
2022/09/03 04:50:28;;;;;;;6.75;4.88;;;;;;;23.09;53.75;95009.00;5013276;28;20037;-60
2022/09/03 04:52:55;;;;;;;5.95;4.20;;;;;;;23.01;54.24;94986.28;4975432;28;20052;-60
2022/09/03 04:55:21;;;;;;;5.18;4.15;;;;;;;22.82;53.54;94959.44;5012350;28;20052;-60
2022/09/03 04:57:47;;;;;;;5.80;4.50;;;;;;;23.04;53.56;94992.69;4987234;28;20099;-60
2022/09/03 05:00:13;;;;;;;5.65;4.47;;;;;;;23.02;53.73;94979.59;5006246;28;20481;-60
2022/09/03 05:02:38;;;;;;;6.22;4.05;;;;;;;23.06;53.81;95004.56;5005978;28;20052;-60
2022/09/03 05:05:05;;;;;;;6.93;4.47;;;;;;;21.52;53.62;94801.25;4992827;28;20048;-61
2022/09/03 05:07:37;;;;;;;5.43;4.22;;;;;;;23.03;53.31;94989.25;4990856;28;20046;-59
2022/09/03 05:10:08;;;;;;;5.50;4.07;;;;;;;22.42;54.21;94933.00;5012933;28;20501;-60
2022/09/03 05:12:34;;;;;;;4.90;3.97;;;;;;;22.53;53.58;94932.91;4966824;28;20050;-60
2022/09/03 05:14:59;;;;;;;5.93;3.92;;;;;;;23.23;53.41;95026.97;4993646;28;20045;-60
2022/09/03 05:17:28;;;;;;;5.57;4.55;;;;;;;23.18;53.83;95003.22;4992888;28;20499;-60
2022/09/03 05:19:53;;;;;;;5.35;4.40;;;;;;;23.11;53.60;94990.16;5003736;28;20030;-60
2022/09/03 05:22:22;;;;;;;4.75;4.00;;;;;;;23.08;53.92;95004.78;5001532;28;20040;-60
2022/09/03 05:24:47;;;;;;;5.47;4.28;;;;;;;23.10;53.21;94993.41;5006218;28;20034;-60
2022/09/03 05:27:15;;;;;;;6.35;4.32;;;;;;;22.84;53.54;94965.84;5007474;28;20572;-61
2022/09/03 05:29:44;;;;;;;5.65;4.40;;;;;;;22.71;53.58;94956.78;4980936;28;20101;-59
2022/09/03 05:32:12;;;;;;;6.60;4.40;;;;;;;22.98;53.80;94987.28;5015944;28;20041;-60
2022/09/03 05:34:38;;;;;;;7.10;4.22;;;;;;;23.31;53.57;95018.97;4996517;28;20508;-60
2022/09/03 05:37:23;;;;;;;6.90;5.03;;;;;;;23.15;54.28;95036.94;5003846;28;20116;-61
2022/09/03 05:39:52;;;;;;;7.70;4.80;;;;;;;22.90;54.08;94970.00;4975198;28;20065;-59
2022/09/03 05:42:38;;;;;;;8.10;4.38;;;;;;;23.08;54.03;95018.41;5018960;28;20038;-59
2022/09/03 05:45:09;;;;;;;5.05;4.20;;;;;;;22.78;54.16;94980.72;5017517;28;20114;-60
2022/09/03 05:48:15;;;;;;;5.65;3.85;;;;;;;23.09;53.99;95009.00;4990627;28;20580;-62
2022/09/03 05:50:47;;;;;;;5.38;4.05;;;;;;;23.20;53.56;95019.81;5005305;28;20030;-60
2022/09/03 05:53:13;;;;;;;5.47;3.78;;;;;;;23.30;53.65;95040.03;5006494;28;20327;-61
2022/09/03 05:55:38;;;;;;;5.15;4.20;;;;;;;22.86;54.10;94962.63;5004509;28;20041;-60
2022/09/03 05:58:04;;;;;;;4.65;3.60;;;;;;;22.94;53.23;94948.72;5012878;28;20120;-62
2022/09/03 06:00:30;;;;;;;5.50;3.70;;;;;;;23.33;52.66;95003.59;5012530;28;20042;-62
2022/09/03 06:02:55;;;;;;;6.47;4.20;;;;;;;23.46;53.31;95003.72;5012530;28;20622;-64
2022/09/03 06:05:21;;;;;;;5.85;4.40;;;;;;;23.38;53.40;94991.91;5016380;28;20120;-60
2022/09/03 06:07:48;;;;;;;4.97;3.90;;;;;;;23.50;52.78;94987.84;5007217;28;20057;-61
2022/09/03 06:10:16;;;;;;;4.93;3.78;;;;;;;23.80;52.54;95021.28;5007706;28;20034;-60
2022/09/03 06:12:44;;;;;;;5.10;3.75;;;;;;;24.07;51.81;95040.78;5010340;28;20081;-59
2022/09/03 06:15:10;;;;;;;5.00;3.88;;;;;;;23.91;52.20;95033.50;4997562;28;20042;-61
2022/09/03 06:17:37;;;;;;;4.90;3.83;;;;;;;24.04;51.47;95030.91;5002762;28;20100;-62
2022/09/03 06:20:03;;;;;;;5.25;3.83;;;;;;;23.99;51.64;95015.34;5003210;28;20038;-61
2022/09/03 06:22:30;;;;;;;4.30;3.70;;;;;;;24.14;50.78;95029.31;5003944;28;20585;-62
2022/09/03 06:24:55;;;;;;;5.43;4.10;;;;;;;23.98;50.98;95005.69;5003132;28;20080;-64
2022/09/03 06:27:21;;;;;;;4.97;3.42;;;;;;;23.73;50.96;94961.84;5001168;28;20065;-60
2022/09/03 06:29:47;;;;;;;5.57;4.05;;;;;;;23.81;50.93;94962.75;5002306;28;20045;-61
2022/09/03 06:32:13;;;;;;;5.35;3.75;;;;;;;23.92;50.49;94996.81;5002313;28;20081;-61
2022/09/03 06:34:38;;;;;;;4.60;3.90;;;;;;;24.50;50.56;95049.75;5008705;28;20088;-61
2022/09/03 06:37:04;;;;;;;6.05;4.38;;;;;;;24.13;50.55;95006.00;4996214;28;20116;-63
2022/09/03 06:39:29;;;;;;;6.03;4.50;;;;;;;24.48;50.57;95047.53;5003181;28;20041;-62
2022/09/03 06:41:55;;;;;;;5.55;4.53;;;;;;;24.57;50.37;95057.34;5001511;28;20050;-61
2022/09/03 06:44:20;;;;;;;5.47;4.28;;;;;;;24.56;50.92;95053.16;5002815;28;20103;-59
2022/09/03 06:46:47;;;;;;;6.63;4.93;;;;;;;24.66;50.17;95046.06;4999140;28;20045;-60
2022/09/03 06:49:12;;;;;;;5.20;4.40;;;;;;;24.14;51.04;95026.59;5000383;28;20061;-61
2022/09/03 06:51:38;;;;;;;5.88;4.82;;;;;;;24.53;51.46;95059.66;5005500;28;20049;-60
2022/09/03 06:54:05;;;;;;;7.38;4.80;;;;;;;24.62;51.39;95042.88;4982246;28;20088;-64
2022/09/03 06:56:32;;;;;;;7.15;5.55;;;;;;;24.83;50.93;95050.78;5000172;28;20049;-60
2022/09/03 06:58:58;;;;;;;6.00;4.72;;;;;;;24.62;50.98;95051.06;5002252;28;20053;-58
2022/09/03 07:01:30;;;;;;;6.47;4.90;;;;;;;24.80;50.62;95056.53;5002700;28;20490;-60
2022/09/03 07:04:03;;;;;;;5.65;4.78;;;;;;;24.88;50.02;95085.47;5013537;28;20109;-58
2022/09/03 07:06:32;;;;;;;5.65;4.90;;;;;;;24.70;50.18;95043.78;4996156;28;20077;-59
2022/09/03 07:08:58;;;;;;;;;;;;;;;24.91;49.86;95057.13;5005510;28;20509;-58
2022/09/03 07:11:26;;;;;;;6.20;4.70;;;;;;;25.07;49.51;95064.38;4999760;28;19925;-59
2022/09/03 07:13:52;;;;;;;6.22;4.60;;;;;;;24.80;49.82;95066.72;5002247;28;20061;-61
2022/09/03 07:16:31;;;;;;;6.00;4.93;;;;;;;24.82;49.77;95075.16;4994868;28;20126;-63
2022/09/03 07:18:57;;;;;;;5.68;4.90;;;;;;;25.06;49.44;95073.81;5002211;28;20037;-61
2022/09/03 07:21:24;;;;;;;6.55;4.50;;;;;;;24.64;49.28;95037.66;5001504;28;20473;-61
2022/09/03 07:23:53;;;;;;;5.90;4.60;;;;;;;24.68;49.04;95010.75;5001779;28;20042;-61
2022/09/03 07:26:20;;;;;;;5.68;4.35;;;;;;;25.06;49.40;95067.63;4999288;28;20557;-59
2022/09/03 07:28:46;;;;;;;5.60;4.30;;;;;;;24.97;48.89;95065.97;4998755;28;20454;-60
2022/09/03 07:31:18;;;;;;;6.43;4.70;;;;;;;25.21;48.85;95078.84;4982640;28;20065;-62
2022/09/03 07:33:45;;;;;;;6.13;4.90;;;;;;;25.14;49.00;95079.44;5003809;28;20030;-60
2022/09/03 07:36:15;;;;;;;5.68;4.30;;;;;;;24.81;48.89;95029.97;5005332;28;20050;-61
2022/09/03 07:38:43;;;;;;;6.30;4.47;;;;;;;24.84;48.21;95027.69;5000857;28;20045;-61
2022/09/03 07:41:09;;;;;;;6.78;4.60;;;;;;;24.52;48.03;94970.78;4982362;28;20061;-62
2022/09/03 07:43:38;;;;;;;6.57;5.43;;;;;;;25.24;48.65;95073.06;4967477;28;20049;-61
2022/09/03 07:46:05;;;;;;;6.88;4.95;;;;;;;25.38;48.32;95077.31;4990281;28;20254;-64
2022/09/03 07:48:31;;;;;;;7.43;4.78;;;;;;;25.32;48.45;95087.63;5002671;28;20058;-65
2022/09/03 07:50:59;;;;;;;7.88;5.03;;;;;;;25.32;48.51;95085.63;5004522;28;20048;-62
2022/09/03 07:53:25;;;;;;;10.02;5.53;;;;;;;25.30;48.20;95087.38;5004805;28;20045;-64
2022/09/03 07:55:51;;;;;;;7.38;4.93;;;;;;;24.91;48.44;95029.78;5000389;28;20049;-62
2022/09/03 07:58:16;;;;;;;7.25;4.80;;;;;;;25.32;48.19;95090.34;5001069;28;20021;-64
2022/09/03 08:00:42;;;;;;;9.10;5.03;;;;;;;25.56;47.60;95074.53;5001379;28;20077;-62
2022/09/03 08:03:07;;;;;;;8.73;4.68;;;;;;;25.64;47.79;95096.56;5000884;28;20038;-68
2022/09/03 08:05:35;;;;;;;7.95;5.10;;;;;;;25.90;46.75;95087.19;4992615;28;20105;-66
2022/09/03 08:08:03;;;;;;;6.93;4.50;;;;;;;25.71;46.93;95076.81;4969535;28;20049;-65
2022/09/03 08:10:29;;;;;;;5.80;4.05;;;;;;;25.25;47.29;95025.34;5001521;28;20078;-67
2022/09/03 08:12:56;;;;;;;6.93;4.47;;;;;;;25.71;47.07;95098.69;5005517;28;20107;-69
2022/09/03 08:15:22;;;;;;;7.07;3.88;;;;;;;25.09;47.54;95023.59;5002239;28;20103;-68
2022/09/03 08:17:48;;;;;;;6.28;4.18;;;;;;;25.31;47.43;95031.47;4996318;28;20473;-67
2022/09/03 08:20:15;;;;;;;6.38;4.32;;;;;;;25.76;47.50;95084.19;5001756;28;20045;-66
2022/09/03 08:22:40;;;;;;;6.18;3.83;;;;;;;25.22;47.65;95031.84;4984125;28;20038;-65
2022/09/03 08:25:06;;;;;;;6.47;4.28;;;;;;;25.74;47.26;95081.22;5003009;28;20033;-66
2022/09/03 08:27:32;;;;;;;5.68;4.68;;;;;;;25.15;47.43;94994.19;4991583;28;20564;-67
2022/09/03 08:29:57;;;;;;;4.55;3.75;;;;;;;25.49;47.81;95066.22;4996248;28;20437;-69
2022/09/03 08:32:23;;;;;;;4.38;3.92;;;;;;;25.51;47.24;95030.88;5002038;28;20453;-67
2022/09/03 08:34:51;;;;;;;5.22;4.18;;;;;;;25.45;47.03;95005.63;4998201;28;20050;-68
2022/09/03 08:37:17;;;;;;;4.88;3.78;;;;;;;25.87;47.19;95085.47;5001703;28;20038;-68
2022/09/03 08:39:43;;;;;;;6.38;3.95;;;;;;;25.98;47.22;95090.75;5004286;28;20030;-65
2022/09/03 08:42:36;;;;;;;6.80;4.28;;;;;;;25.09;47.87;94999.00;4984276;28;20232;-64
2022/09/03 08:45:05;;;;;;;7.13;4.38;;;;;;;25.51;46.93;95030.88;4987366;28;20033;-65
2022/09/03 08:47:40;;;;;;;6.35;4.10;;;;;;;25.92;47.17;95081.91;4967517;28;20084;-66
2022/09/03 08:50:18;;;;;;;6.82;3.92;;;;;;;25.91;47.00;95083.16;4999223;28;20129;-64
2022/09/03 08:52:58;;;;;;;7.40;4.13;;;;;;;26.10;46.44;95072.13;5005327;28;20084;-68
2022/09/03 08:55:49;;;;;;;4.55;3.97;;;;;;;26.17;46.47;95085.91;5008622;28;20029;-69
2022/09/03 08:58:17;;;;;;;5.43;3.90;;;;;;;26.14;46.47;95092.44;5001969;28;20399;-68
2022/09/03 09:01:00;;;;;;;5.63;4.10;;;;;;;26.02;46.60;95074.00;5000074;28;20085;-69
2022/09/03 09:03:42;;;;;;;5.07;4.32;;;;;;;26.02;46.91;95091.19;4984756;28;20041;-72
2022/09/03 09:06:26;;;;;;;5.95;4.45;;;;;;;26.02;46.85;95091.19;4985152;28;20042;-67
2022/09/03 09:09:22;;;;;;;6.07;4.07;;;;;;;26.06;46.90;95085.41;5006649;28;20137;-65
2022/09/03 09:11:49;;;;;;;5.28;4.30;;;;;;;26.00;47.38;95090.97;4984974;28;20153;-66
2022/09/03 09:14:23;;;;;;;5.55;4.38;;;;;;;25.53;50.22;95083.78;4991988;28;20498;-68
2022/09/03 09:17:07;;;;;;;5.78;4.20;;;;;;;25.97;48.10;95094.75;5004169;28;20042;-68
2022/09/03 09:19:55;;;;;;;5.07;4.15;;;;;;;26.10;47.48;95094.00;4972522;28;20053;-62
2022/09/03 09:22:48;;;;;;;6.30;4.47;;;;;;;26.09;47.32;95098.75;4979061;28;20036;-67
2022/09/03 09:25:21;;;;;;;4.78;3.90;;;;;;;26.27;47.16;95089.72;5000413;28;20514;-67
2022/09/03 09:27:50;;;;;;;5.15;4.65;;;;;;;25.94;46.90;95032.84;5003820;28;20542;-64
2022/09/03 09:30:17;;;;;;;7.00;4.20;;;;;;;26.15;46.50;95055.59;5000324;28;20599;-64
2022/09/03 09:32:42;;;;;;;5.38;4.03;;;;;;;26.23;47.17;95083.81;5008469;28;20065;-63
2022/09/03 09:35:09;;;;;;;5.38;4.28;;;;;;;26.43;46.39;95094.19;4999839;28;20068;-67
2022/09/03 09:37:45;;;;;;;7.20;4.57;;;;;;;26.30;46.28;95069.53;5005567;28;20049;-66
2022/09/03 09:40:10;;;;;;;6.07;4.15;;;;;;;26.45;46.27;95086.16;4991173;28;20018;-66
2022/09/03 09:42:36;;;;;;;6.20;4.10;;;;;;;26.51;46.31;95081.31;4990060;28;20029;-69
2022/09/03 09:45:09;;;;;;;5.22;3.95;;;;;;;26.47;45.94;95089.09;5008581;28;20584;-69
2022/09/03 09:47:37;;;;;;;6.03;4.03;;;;;;;26.23;46.35;95053.69;5001108;28;20120;-67
2022/09/03 09:50:03;;;;;;;4.63;4.13;;;;;;;26.57;45.50;95106.59;5002359;28;20062;-67
2022/09/03 09:52:30;;;;;;;5.57;3.60;;;;;;;26.09;45.83;95019.38;4987984;28;20131;-68
2022/09/03 09:55:28;;;;;;;4.63;3.63;;;;;;;26.40;46.00;95103.44;4973249;28;20049;-69
2022/09/03 09:58:04;;;;;;;4.50;4.03;;;;;;;26.32;46.39;95099.84;4963843;28;20046;-66
2022/09/03 10:00:33;;;;;;;4.95;4.22;;;;;;;26.31;45.55;95051.84;5006514;28;20037;-67
2022/09/03 10:02:58;;;;;;;4.93;4.07;;;;;;;26.28;45.33;95042.69;5004783;28;20121;-69
2022/09/03 10:05:39;;;;;;;6.00;3.95;;;;;;;26.74;45.82;95102.28;5005211;28;20064;-70
2022/09/03 10:08:20;;;;;;;6.15;4.00;;;;;;;26.81;45.51;95105.06;4992679;28;20042;-67
2022/09/03 10:10:50;;;;;;;4.57;3.75;;;;;;;26.68;45.34;95074.25;5009284;28;20053;-69
2022/09/03 10:13:18;;;;;;;4.90;4.20;;;;;;;26.85;45.48;95089.06;5005656;28;20493;-68
2022/09/03 10:15:54;;;;;;;5.03;4.20;;;;;;;26.52;45.36;95049.94;4989546;28;20036;-69
2022/09/03 10:18:41;;;;;;;5.22;4.13;;;;;;;25.97;45.87;95007.16;4986177;28;20414;-67
2022/09/03 10:21:34;;;;;;;7.55;4.30;;;;;;;26.66;46.01;95089.72;4973420;28;20038;-68
2022/09/03 10:24:30;;;;;;;5.78;4.38;;;;;;;26.77;45.49;95099.19;5007028;28;20038;-67
2022/09/03 10:26:57;;;;;;;4.80;4.03;;;;;;;26.89;44.59;95078.56;5006788;28;20053;-64
2022/09/03 10:29:28;;;;;;;4.50;4.00;;;;;;;26.22;45.49;95032.31;4990261;28;20148;-64
2022/09/03 10:32:06;;;;;;;6.43;4.30;;;;;;;26.64;45.52;95086.78;4972165;28;20519;-64
2022/09/03 10:34:36;;;;;;;5.63;4.30;;;;;;;26.43;46.06;95083.22;4999556;28;20125;-66
2022/09/03 10:37:19;;;;;;;6.13;4.38;;;;;;;26.78;45.18;95081.47;5008810;28;20058;-68
2022/09/03 10:39:45;;;;;;;6.13;4.40;;;;;;;26.51;45.80;95084.06;5007836;28;20038;-63
2022/09/03 10:42:36;;;;;;;6.93;4.32;;;;;;;26.64;45.46;95078.56;5005398;28;20034;-67
2022/09/03 10:45:31;;;;;;;5.72;4.43;;;;;;;26.51;45.88;95079.31;4980659;28;20575;-62
2022/09/03 10:48:12;;;;;;;7.13;4.25;;;;;;;26.64;45.62;95084.06;4972058;28;20073;-63
2022/09/03 10:50:47;;;;;;;5.50;3.65;;;;;;;26.47;45.92;95091.84;5002243;28;20776;-66
2022/09/03 10:53:28;;;;;;;6.38;4.25;;;;;;;26.72;45.20;95062.97;5005719;28;20038;-63
2022/09/03 10:56:12;;;;;;;4.90;3.72;;;;;;;26.93;44.99;95095.38;4974144;28;20040;-63
2022/09/03 10:59:02;;;;;;;4.72;3.47;;;;;;;27.22;43.99;95083.31;4984805;28;20109;-64
2022/09/03 11:01:33;;;;;;;4.40;3.30;;;;;;;27.13;44.64;95086.50;5009387;28;20553;-65
2022/09/03 11:03:58;;;;;;;4.47;3.63;;;;;;;27.21;44.61;95092.78;4970381;28;20415;-67
2022/09/03 11:06:28;;;;;;;4.13;3.72;;;;;;;26.50;44.79;95003.13;5001488;28;20042;-70
2022/09/03 11:09:13;;;;;;;4.53;3.70;;;;;;;27.26;44.37;95089.19;4990271;28;20144;-69
2022/09/03 11:11:49;;;;;;;6.30;4.13;;;;;;;27.18;44.84;95082.88;5006347;28;20050;-68
2022/09/03 11:14:19;;;;;;;4.05;3.53;;;;;;;27.10;45.06;95075.84;4979902;28;20057;-70
2022/09/03 11:16:53;;;;;;;4.38;3.38;;;;;;;26.96;44.28;95088.84;4999970;28;20037;-69
2022/09/03 11:19:22;;;;;;;4.13;3.72;;;;;;;26.48;43.96;95033.06;4999552;28;20034;-70
2022/09/03 11:21:47;;;;;;;4.55;3.63;;;;;;;26.42;44.63;95046.16;4967923;28;20021;-65
2022/09/03 11:24:18;;;;;;;4.65;3.80;;;;;;;26.87;44.44;95083.78;4983214;28;20029;-66
2022/09/03 11:26:45;;;;;;;4.47;3.80;;;;;;;26.88;44.43;95085.25;4986909;28;20057;-67
2022/09/03 11:29:31;;;;;;;4.43;3.85;;;;;;;26.69;44.62;95047.56;5007901;28;20045;-70
2022/09/03 11:32:21;;;;;;;4.25;3.60;;;;;;;26.81;44.67;95085.91;4970394;28;20045;-70
2022/09/03 11:34:49;;;;;;;;;;;;;;;27.01;44.52;95085.25;5002375;28;20137;-69
2022/09/03 11:37:25;;;;;;;3.90;3.50;;;;;;;26.75;44.26;95040.69;5008388;28;19917;-69
2022/09/03 11:40:15;;;;;;;4.80;3.92;;;;;;;27.14;44.29;95090.69;4972183;28;20018;-67
2022/09/03 11:42:41;;;;;;;4.10;3.70;;;;;;;26.99;44.45;95043.94;4974476;28;20041;-67
2022/09/03 11:45:26;;;;;;;6.13;4.10;;;;;;;27.28;44.41;95075.69;5006589;28;20030;-69
2022/09/03 11:47:52;;;;;;;5.15;3.97;;;;;;;27.48;43.97;95080.44;4998691;28;20041;-71
2022/09/03 11:50:25;;;;;;;3.83;3.40;;;;;;;27.09;44.39;95047.69;5011593;28;20048;-69
2022/09/03 11:53:12;;;;;;;4.30;3.85;;;;;;;27.16;44.34;95025.13;4985578;28;20108;-71
2022/09/03 11:55:53;;;;;;;4.88;3.70;;;;;;;27.37;43.86;95089.69;4988767;28;20049;-68